Terminal Aerodrome Forecast
Issued by NWS

Home | Current Version | Previous Version | Text Only | Print | Product List | Glossary On
Versions: 1 2 3 4 5 6 7 8 9 10 11 12 13 14 15
000
FTUS45 KABQ 261740
TAFSAF
TAF
KSAF 261740Z 2618/2718 19011KT P6SM SCT120
     FM262300 VRB20G30KT P6SM VCTS BKN090CB
     FM270200 14011G21KT P6SM BKN090
     FM270700 13010KT P6SM BKN090=

USA.gov is the U.S. government's official web portal to all federal, state and local government web resources and services.